createdAt,value
2022-08-29T00:00:48.982Z,24.38
2022-08-29T00:03:18.470Z,24.74
2022-08-29T00:05:49.902Z,24.89
2022-08-29T00:08:19.712Z,24.80
2022-08-29T00:10:47.019Z,24.83
2022-08-29T00:13:14.599Z,24.73
2022-08-29T00:15:45.306Z,24.92
2022-08-29T00:18:14.144Z,24.52
2022-08-29T00:20:42.025Z,24.75
2022-08-29T00:23:09.467Z,24.76
2022-08-29T00:25:36.973Z,24.56
2022-08-29T00:28:05.064Z,24.17
2022-08-29T00:30:32.734Z,24.36
2022-08-29T00:33:00.362Z,24.61
2022-08-29T00:35:32.487Z,24.81
2022-08-29T00:38:00.641Z,24.42
2022-08-29T00:40:33.662Z,24.25
2022-08-29T00:43:01.025Z,24.38
2022-08-29T00:45:28.373Z,24.48
2022-08-29T00:47:57.768Z,24.23
2022-08-29T00:50:29.917Z,24.21
2022-08-29T00:52:59.002Z,24.41
2022-08-29T00:55:27.926Z,24.46
2022-08-29T00:57:56.843Z,24.42
2022-08-29T01:00:25.393Z,24.31
2022-08-29T01:02:54.333Z,24.55
2022-08-29T01:05:22.524Z,24.46
2022-08-29T01:07:52.147Z,24.43
2022-08-29T01:10:38.650Z,24.48
2022-08-29T01:13:06.247Z,24.40
2022-08-29T01:15:34.036Z,24.37
2022-08-29T01:18:01.806Z,24.09
2022-08-29T01:20:52.402Z,24.24
2022-08-29T01:23:27.914Z,24.19
2022-08-29T01:25:56.081Z,24.26
2022-08-29T01:28:25.696Z,23.99
2022-08-29T01:31:04.519Z,23.82
2022-08-29T01:33:41.900Z,24.04
2022-08-29T01:36:12.106Z,24.14
2022-08-29T01:38:41.741Z,23.98
2022-08-29T01:41:10.580Z,23.97
2022-08-29T01:43:42.849Z,23.84
2022-08-29T01:46:12.887Z,23.95
2022-08-29T01:48:41.142Z,23.77
2022-08-29T01:51:08.496Z,23.54
2022-08-29T01:53:37.034Z,23.62
2022-08-29T01:56:18.481Z,23.96
2022-08-29T01:58:47.760Z,23.71
2022-08-29T02:01:16.047Z,23.55
2022-08-29T02:03:43.875Z,23.38
2022-08-29T02:06:11.846Z,23.60
2022-08-29T02:08:39.859Z,23.63
2022-08-29T02:11:11.516Z,23.47
2022-08-29T02:13:39.874Z,23.68
2022-08-29T02:16:09.052Z,23.61
2022-08-29T02:18:36.340Z,23.70
2022-08-29T02:21:04.108Z,23.81
2022-08-29T02:23:33.797Z,23.81
2022-08-29T02:26:01.486Z,23.24
2022-08-29T02:28:29.184Z,23.31
2022-08-29T02:30:57.060Z,23.30
2022-08-29T02:33:24.817Z,23.26
2022-08-29T02:35:53.538Z,23.45
2022-08-29T02:38:22.019Z,23.18
2022-08-29T02:40:50.215Z,23.56
2022-08-29T02:43:19.526Z,23.15
2022-08-29T02:45:47.602Z,22.99
2022-08-29T02:48:18.123Z,23.00
2022-08-29T02:50:46.712Z,23.16
2022-08-29T02:53:15.981Z,23.13
2022-08-29T02:55:43.589Z,23.17
2022-08-29T02:58:10.965Z,22.82
2022-08-29T03:00:39.298Z,22.88
2022-08-29T03:03:08.516Z,22.93
2022-08-29T03:05:37.213Z,22.92
2022-08-29T03:08:07.541Z,22.92
2022-08-29T03:10:35.445Z,22.58
2022-08-29T03:13:03.916Z,22.78
2022-08-29T03:15:33.076Z,22.77
2022-08-29T03:18:01.607Z,23.09
2022-08-29T03:20:29.062Z,23.04
2022-08-29T03:22:57.433Z,23.07
2022-08-29T03:25:24.946Z,22.92
2022-08-29T03:27:53.005Z,22.99
2022-08-29T03:30:21.069Z,22.95
2022-08-29T03:32:51.227Z,22.79
2022-08-29T03:35:19.834Z,22.98
2022-08-29T03:37:47.833Z,22.89
2022-08-29T03:40:15.776Z,22.86
2022-08-29T03:42:43.350Z,22.88
2022-08-29T03:45:13.071Z,23.02
2022-08-29T03:47:41.686Z,23.13
2022-08-29T03:50:09.481Z,22.77
2022-08-29T03:52:37.686Z,22.85
2022-08-29T03:55:08.637Z,22.96
2022-08-29T03:57:36.714Z,22.90
2022-08-29T04:00:12.590Z,23.00
2022-08-29T04:02:46.030Z,22.81
2022-08-29T04:05:15.846Z,22.87
2022-08-29T04:07:46.091Z,22.78
2022-08-29T04:10:17.482Z,22.90
2022-08-29T04:12:45.682Z,22.81
2022-08-29T04:15:14.156Z,22.80
2022-08-29T04:17:53.095Z,22.83
2022-08-29T04:20:28.910Z,22.74
2022-08-29T04:22:59.828Z,22.53
2022-08-29T04:25:28.614Z,22.85
2022-08-29T04:27:55.902Z,22.89
2022-08-29T04:30:24.836Z,22.63
2022-08-29T04:32:57.458Z,22.66
2022-08-29T04:35:25.264Z,22.68
2022-08-29T04:37:57.907Z,22.44
2022-08-29T04:40:26.661Z,22.53
2022-08-29T04:42:55.503Z,22.46
2022-08-29T04:45:27.758Z,22.71
2022-08-29T04:48:01.822Z,22.87
2022-08-29T04:50:32.108Z,22.71
2022-08-29T04:52:59.867Z,22.88
2022-08-29T04:55:27.131Z,22.71
2022-08-29T04:57:56.989Z,22.81
2022-08-29T05:00:27.470Z,23.02
2022-08-29T05:02:55.926Z,22.89
2022-08-29T05:05:27.491Z,22.91
2022-08-29T05:07:57.279Z,23.09
2022-08-29T05:10:30.505Z,23.52
2022-08-29T05:12:59.898Z,23.24
2022-08-29T05:15:28.030Z,23.19
2022-08-29T05:20:53.323Z,23.12
2022-08-29T05:23:21.361Z,22.97
2022-08-29T05:25:55.126Z,23.57
2022-08-29T05:28:22.971Z,23.48
2022-08-29T05:30:51.016Z,23.23
2022-08-29T05:33:18.793Z,23.28
2022-08-29T05:35:56.641Z,23.68
2022-08-29T05:38:28.030Z,23.84
2022-08-29T05:41:09.625Z,24.04
2022-08-29T05:43:42.570Z,24.07
2022-08-29T05:46:13.662Z,23.77
2022-08-29T05:48:48.918Z,24.23
2022-08-29T05:51:24.569Z,23.88
2022-08-29T05:53:52.831Z,24.17
2022-08-29T05:56:21.027Z,24.17
2022-08-29T05:58:52.720Z,24.38
2022-08-29T06:01:26.442Z,24.01
2022-08-29T06:03:56.399Z,24.22
2022-08-29T06:06:30.521Z,24.12
2022-08-29T06:08:59.980Z,24.24
2022-08-29T06:11:30.191Z,24.74
2022-08-29T06:14:10.487Z,24.62
2022-08-29T06:16:40.879Z,24.66
2022-08-29T06:19:08.832Z,24.99
2022-08-29T06:24:21.455Z,25.05
2022-08-29T06:26:52.075Z,25.11
2022-08-29T06:29:32.293Z,25.10
2022-08-29T06:32:09.823Z,24.84
2022-08-29T06:34:37.699Z,25.13
2022-08-29T06:37:05.930Z,25.06
2022-08-29T06:39:37.585Z,25.61
2022-08-29T06:42:05.961Z,25.66
2022-08-29T06:44:34.764Z,25.20
2022-08-29T06:47:03.704Z,25.58
2022-08-29T06:49:32.611Z,25.96
2022-08-29T06:52:00.570Z,26.11
2022-08-29T06:54:29.493Z,26.06
2022-08-29T06:57:00.596Z,25.93
2022-08-29T06:59:31.649Z,25.59
2022-08-29T07:02:09.796Z,26.05
2022-08-29T07:04:38.001Z,26.25
2022-08-29T07:07:14.643Z,26.40
2022-08-29T07:09:44.331Z,26.12
2022-08-29T07:12:14.524Z,26.23
2022-08-29T07:14:45.862Z,26.26
2022-08-29T07:17:18.981Z,26.34
2022-08-29T07:19:58.897Z,26.23
2022-08-29T07:22:27.955Z,26.39
2022-08-29T07:24:56.493Z,26.46
2022-08-29T07:27:24.620Z,26.45
2022-08-29T07:29:54.422Z,26.92
2022-08-29T07:32:26.050Z,27.06
2022-08-29T07:34:56.099Z,27.13
2022-08-29T07:37:25.577Z,26.83
2022-08-29T07:39:53.386Z,27.55
2022-08-29T07:42:29.711Z,27.56
2022-08-29T07:44:58.384Z,27.53
2022-08-29T07:47:29.714Z,27.71
2022-08-29T07:50:15.526Z,27.84
2022-08-29T07:52:44.621Z,27.96
2022-08-29T07:55:22.097Z,28.23
2022-08-29T07:57:56.904Z,28.48
2022-08-29T08:00:29.130Z,28.60
2022-08-29T08:02:58.076Z,28.62
2022-08-29T08:05:32.642Z,28.11
2022-08-29T08:08:13.817Z,28.32
2022-08-29T08:11:16.549Z,28.21
2022-08-29T08:13:49.825Z,28.06
2022-08-29T08:16:19.090Z,28.08
2022-08-29T08:18:49.550Z,28.32
2022-08-29T08:21:17.498Z,28.45
2022-08-29T08:23:53.385Z,28.70
2022-08-29T08:26:21.920Z,28.91
2022-08-29T08:28:55.198Z,28.75
2022-08-29T08:31:26.667Z,28.96
2022-08-29T08:33:55.543Z,28.79
2022-08-29T08:36:30.190Z,28.84
2022-08-29T08:39:01.936Z,28.83
2022-08-29T08:41:52.181Z,28.68
2022-08-29T08:44:26.601Z,28.57
2022-08-29T08:47:00.342Z,28.44
2022-08-29T08:49:34.440Z,28.30
2022-08-29T08:52:09.305Z,28.42
2022-08-29T08:57:20.617Z,29.01
2022-08-29T08:59:50.724Z,29.23
2022-08-29T09:02:28.602Z,29.24
2022-08-29T09:05:19.547Z,29.19
2022-08-29T09:07:50.211Z,28.95
2022-08-29T09:10:30.464Z,28.86
2022-08-29T09:13:24.586Z,28.64
2022-08-29T09:16:00.754Z,28.90
2022-08-29T09:18:39.093Z,29.13
2022-08-29T09:21:39.538Z,29.11
2022-08-29T09:24:05.562Z,29.14
2022-08-29T09:26:35.005Z,29.11
2022-08-29T09:29:14.131Z,29.09
2022-08-29T09:31:44.978Z,29.06
2022-08-29T09:34:45.177Z,29.64
2022-08-29T09:37:32.648Z,29.41
2022-08-29T09:40:03.915Z,29.45
2022-08-29T09:42:35.959Z,29.65
2022-08-29T09:48:11.646Z,29.98
2022-08-29T09:50:48.674Z,30.33
2022-08-29T09:53:25.536Z,30.20
2022-08-29T09:55:55.573Z,30.21
2022-08-29T09:58:28.617Z,30.36
2022-08-29T10:00:59.408Z,30.17
2022-08-29T10:03:33.599Z,30.39
2022-08-29T10:06:06.411Z,30.42
2022-08-29T10:08:40.559Z,30.43
2022-08-29T10:11:20.108Z,30.30
2022-08-29T10:14:04.829Z,30.37
2022-08-29T10:16:38.268Z,29.91
2022-08-29T10:19:10.900Z,30.66
2022-08-29T10:21:49.920Z,30.25
2022-08-29T10:27:05.214Z,30.71
2022-08-29T10:29:37.687Z,30.34
2022-08-29T10:32:13.923Z,30.31
2022-08-29T10:34:55.615Z,31.05
2022-08-29T10:37:23.867Z,31.41
2022-08-29T10:40:02.791Z,31.05
2022-08-29T10:45:15.640Z,31.51
2022-08-29T10:47:51.623Z,31.45
2022-08-29T10:53:10.126Z,30.93
2022-08-29T10:56:05.840Z,31.16
2022-08-29T11:01:49.982Z,31.34
2022-08-29T11:04:24.623Z,30.90
2022-08-29T11:07:07.627Z,30.98
2022-08-29T11:09:44.585Z,30.75
2022-08-29T11:12:36.606Z,31.12
2022-08-29T11:15:29.368Z,31.30
2022-08-29T11:18:15.474Z,30.78
2022-08-29T11:21:15.169Z,30.84
2022-08-29T11:23:52.598Z,31.03
2022-08-29T11:26:26.859Z,31.52
2022-08-29T11:29:02.876Z,31.44
2022-08-29T11:31:38.614Z,31.50
2022-08-29T11:34:13.585Z,31.61
2022-08-29T11:37:09.978Z,31.41
2022-08-29T11:39:59.792Z,31.21
2022-08-29T11:42:56.990Z,31.14
2022-08-29T11:45:36.942Z,31.19
2022-08-29T11:48:26.629Z,31.16
2022-08-29T11:51:01.672Z,31.10
2022-08-29T11:53:37.746Z,31.34
2022-08-29T11:56:16.035Z,31.68
2022-08-29T11:58:49.667Z,31.50
2022-08-29T12:01:26.654Z,31.22
2022-08-29T12:04:05.698Z,31.89
2022-08-29T12:06:47.571Z,31.94
2022-08-29T12:09:24.735Z,31.49
2022-08-29T12:12:04.884Z,31.76
2022-08-29T12:14:45.582Z,31.69
2022-08-29T12:17:22.454Z,31.34
2022-08-29T12:20:05.918Z,31.38
2022-08-29T12:22:52.745Z,31.47
2022-08-29T12:25:27.860Z,31.75
2022-08-29T12:28:03.260Z,32.00
2022-08-29T12:30:39.833Z,32.19
2022-08-29T12:33:13.701Z,32.46
2022-08-29T12:36:02.286Z,32.40
2022-08-29T12:38:57.624Z,32.48
2022-08-29T12:41:47.217Z,32.06
2022-08-29T12:44:18.086Z,32.56
2022-08-29T12:46:48.755Z,32.14
2022-08-29T12:49:36.567Z,32.71
2022-08-29T12:52:07.480Z,32.86
2022-08-29T12:54:42.062Z,32.32
2022-08-29T12:57:22.664Z,32.58
2022-08-29T12:59:58.479Z,32.67
2022-08-29T13:02:35.675Z,33.12
2022-08-29T13:05:26.885Z,32.82
2022-08-29T13:08:00.189Z,33.24
2022-08-29T13:10:28.338Z,33.04
2022-08-29T13:15:52.899Z,33.33
2022-08-29T13:18:24.636Z,33.01
2022-08-29T13:24:00.810Z,33.07
2022-08-29T13:26:32.789Z,32.76
2022-08-29T13:29:15.081Z,32.45
2022-08-29T13:31:44.258Z,31.98
2022-08-29T13:34:23.649Z,31.76
2022-08-29T13:37:02.405Z,31.34
2022-08-29T13:39:32.590Z,31.19
2022-08-29T13:42:21.498Z,31.14
2022-08-29T13:44:49.502Z,31.39
2022-08-29T13:50:05.619Z,31.03
2022-08-29T13:52:42.582Z,30.89
2022-08-29T13:55:17.616Z,31.01
2022-08-29T13:57:51.814Z,31.22
2022-08-29T14:00:27.224Z,31.00
2022-08-29T14:03:15.745Z,31.32
2022-08-29T14:05:51.616Z,31.59
2022-08-29T14:08:26.816Z,31.39
2022-08-29T14:11:00.881Z,31.25
2022-08-29T14:13:32.209Z,31.41
2022-08-29T14:16:02.123Z,31.60
2022-08-29T14:18:29.969Z,31.33
2022-08-29T14:21:02.002Z,31.54
2022-08-29T14:23:36.867Z,31.77
2022-08-29T14:26:12.669Z,31.56
2022-08-29T14:28:47.869Z,31.57
2022-08-29T14:31:25.688Z,31.24
2022-08-29T14:33:56.540Z,30.98
2022-08-29T14:36:25.736Z,30.98
2022-08-29T14:38:56.141Z,31.56
2022-08-29T14:41:32.688Z,31.03
2022-08-29T14:44:03.324Z,31.42
2022-08-29T14:46:32.562Z,31.36
2022-08-29T14:49:05.635Z,31.37
2022-08-29T14:51:33.907Z,31.10
2022-08-29T14:54:02.706Z,31.29
2022-08-29T15:01:53.434Z,31.30
2022-08-29T15:04:36.549Z,30.99
2022-08-29T15:07:08.647Z,31.39
2022-08-29T15:09:44.342Z,31.24
2022-08-29T15:12:15.922Z,31.05
2022-08-29T15:14:50.787Z,30.88
2022-08-29T15:17:21.718Z,30.67
2022-08-29T15:20:34.357Z,30.89
2022-08-29T15:22:39.319Z,30.85
2022-08-29T15:25:09.180Z,30.81
2022-08-29T15:27:41.663Z,30.73
2022-08-29T15:30:13.639Z,30.84
2022-08-29T15:32:43.808Z,30.76
2022-08-29T15:35:31.574Z,30.93
2022-08-29T15:38:07.703Z,30.63
2022-08-29T15:40:46.969Z,30.35
2022-08-29T15:43:22.666Z,30.98
2022-08-29T15:45:59.742Z,30.92
2022-08-29T15:48:32.484Z,30.78
2022-08-29T15:51:03.662Z,30.70
2022-08-29T15:53:33.855Z,30.45
2022-08-29T15:56:07.320Z,30.64
2022-08-29T15:58:48.660Z,30.95
2022-08-29T16:04:15.685Z,30.75
2022-08-29T16:06:53.950Z,30.93
2022-08-29T16:09:30.701Z,30.60
2022-08-29T16:11:58.685Z,30.71
2022-08-29T16:17:30.084Z,30.01
2022-08-29T16:20:00.980Z,30.40
2022-08-29T16:22:37.442Z,29.76
2022-08-29T16:25:06.951Z,30.20
2022-08-29T16:27:35.314Z,30.51
2022-08-29T16:30:04.987Z,30.44
2022-08-29T16:32:34.044Z,30.33
2022-08-29T16:35:04.552Z,30.39
2022-08-29T16:37:45.621Z,30.40
2022-08-29T16:40:28.066Z,30.19
2022-08-29T16:43:00.678Z,30.06
2022-08-29T16:45:33.015Z,29.98
2022-08-29T16:48:10.776Z,30.16
2022-08-29T16:50:51.076Z,30.39
2022-08-29T16:53:38.519Z,30.21
2022-08-29T16:56:17.646Z,30.52
2022-08-29T16:59:03.790Z,30.26
2022-08-29T17:01:39.930Z,30.21
2022-08-29T17:04:15.055Z,30.10
2022-08-29T17:06:47.681Z,29.89
2022-08-29T17:11:51.866Z,29.92
2022-08-29T17:14:30.166Z,29.88
2022-08-29T17:17:03.264Z,29.60
2022-08-29T17:19:33.526Z,29.60
2022-08-29T17:22:06.036Z,29.24
2022-08-29T17:24:34.700Z,29.34
2022-08-29T17:27:06.749Z,29.37
2022-08-29T17:32:24.770Z,29.56
2022-08-29T17:34:52.996Z,29.49
2022-08-29T17:37:24.158Z,29.27
2022-08-29T17:39:59.069Z,29.22
2022-08-29T17:42:28.048Z,29.31
2022-08-29T17:45:04.772Z,29.22
2022-08-29T17:47:34.941Z,29.25
2022-08-29T17:50:05.758Z,29.17
2022-08-29T17:52:47.417Z,29.24
2022-08-29T17:55:15.408Z,29.01
2022-08-29T17:58:00.156Z,28.98
2022-08-29T18:00:37.826Z,28.98
2022-08-29T18:03:14.946Z,28.92
2022-08-29T18:05:44.692Z,28.83
2022-08-29T18:08:17.846Z,28.95
2022-08-29T18:10:57.710Z,28.71
2022-08-29T18:13:26.125Z,28.68
2022-08-29T18:18:42.365Z,28.57
2022-08-29T18:21:32.839Z,28.58
2022-08-29T18:24:10.803Z,28.44
2022-08-29T18:29:22.904Z,28.41
2022-08-29T18:31:52.081Z,28.38
2022-08-29T18:37:05.667Z,28.31
2022-08-29T18:39:44.167Z,28.33
2022-08-29T18:42:38.816Z,28.20
2022-08-29T18:45:09.698Z,28.22
2022-08-29T18:47:46.996Z,28.12
2022-08-29T18:50:29.679Z,28.31
2022-08-29T18:52:58.864Z,28.33
2022-08-29T18:55:34.794Z,28.38
2022-08-29T18:58:09.964Z,28.23
2022-08-29T19:00:46.133Z,28.11
2022-08-29T19:03:18.755Z,28.11
2022-08-29T19:06:07.722Z,27.92
2022-08-29T19:08:41.881Z,27.80
2022-08-29T19:11:22.911Z,27.92
2022-08-29T19:13:53.867Z,27.76
2022-08-29T19:16:32.824Z,27.73
2022-08-29T19:19:16.832Z,27.47
2022-08-29T19:21:54.608Z,27.53
2022-08-29T19:24:43.734Z,27.57
2022-08-29T19:27:42.352Z,27.34
2022-08-29T19:30:19.703Z,27.39
2022-08-29T19:33:03.788Z,27.37
2022-08-29T19:35:33.315Z,27.56
2022-08-29T19:38:04.873Z,27.22
2022-08-29T19:40:39.930Z,27.15
2022-08-29T19:43:17.856Z,27.05
2022-08-29T19:45:59.014Z,26.93
2022-08-29T19:48:33.764Z,26.97
2022-08-29T19:51:12.890Z,26.86
2022-08-29T19:53:55.893Z,26.99
2022-08-29T19:56:26.900Z,26.88
2022-08-29T19:58:59.799Z,26.88
2022-08-29T20:01:36.817Z,26.68
2022-08-29T20:04:13.217Z,26.64
2022-08-29T20:06:42.385Z,26.68
2022-08-29T20:09:25.181Z,26.84
2022-08-29T20:11:56.840Z,26.59
2022-08-29T20:14:40.172Z,26.76
2022-08-29T20:17:13.729Z,26.57
2022-08-29T20:22:25.732Z,26.55
2022-08-29T20:24:55.754Z,26.47
2022-08-29T20:30:04.971Z,26.25
2022-08-29T20:32:56.760Z,26.10
2022-08-29T20:35:52.167Z,26.31
2022-08-29T20:38:22.158Z,26.00
2022-08-29T20:41:09.147Z,26.05
2022-08-29T20:43:39.330Z,26.15
2022-08-29T20:46:08.153Z,26.13
2022-08-29T20:48:44.731Z,25.94
2022-08-29T20:51:14.122Z,25.91
2022-08-29T20:53:45.052Z,25.83
2022-08-29T20:58:47.847Z,25.90
2022-08-29T21:01:16.835Z,25.84
2022-08-29T21:04:04.830Z,25.63
2022-08-29T21:06:34.263Z,25.67
2022-08-29T21:09:02.750Z,25.72
2022-08-29T21:11:32.065Z,25.62
2022-08-29T21:14:00.615Z,25.65
2022-08-29T21:16:28.684Z,25.60
2022-08-29T21:18:57.162Z,25.59
2022-08-29T21:21:28.069Z,25.41
2022-08-29T21:23:56.656Z,25.51
2022-08-29T21:26:24.769Z,25.47
2022-08-29T21:28:52.913Z,25.22
2022-08-29T21:31:23.945Z,25.28
2022-08-29T21:33:51.654Z,25.27
2022-08-29T21:36:22.651Z,25.19
2022-08-29T21:38:52.759Z,25.16
2022-08-29T21:41:21.985Z,25.16
2022-08-29T21:43:50.989Z,25.22
2022-08-29T21:46:26.030Z,25.06
2022-08-29T21:48:58.015Z,25.21
2022-08-29T21:51:25.986Z,25.09
2022-08-29T21:53:56.156Z,24.95
2022-08-29T21:56:24.368Z,24.71
2022-08-29T21:58:54.770Z,24.86
2022-08-29T22:01:27.921Z,24.78
2022-08-29T22:03:57.155Z,24.96
2022-08-29T22:06:27.693Z,24.78
2022-08-29T22:09:02.094Z,24.60
2022-08-29T22:11:37.122Z,24.67
2022-08-29T22:14:06.706Z,24.77
2022-08-29T22:16:34.827Z,24.74
2022-08-29T22:19:15.006Z,24.61
2022-08-29T22:21:44.986Z,24.58
2022-08-29T22:24:13.350Z,24.64
2022-08-29T22:26:41.149Z,24.63
2022-08-29T22:29:11.937Z,24.52
2022-08-29T22:31:40.429Z,24.57
2022-08-29T22:34:11.620Z,24.44
2022-08-29T22:36:39.252Z,24.42
2022-08-29T22:39:08.042Z,23.88
2022-08-29T22:41:36.673Z,24.17
2022-08-29T22:46:54.537Z,24.30
2022-08-29T22:49:24.829Z,24.31
2022-08-29T22:51:55.505Z,24.36
2022-08-29T22:54:36.678Z,24.39
2022-08-29T22:57:07.186Z,24.12
2022-08-29T22:59:34.877Z,24.21
2022-08-29T23:02:02.842Z,24.11
2022-08-29T23:04:30.761Z,24.14
2022-08-29T23:06:58.375Z,24.08
2022-08-29T23:09:26.039Z,24.03
2022-08-29T23:11:53.999Z,24.11
2022-08-29T23:14:21.494Z,23.94
2022-08-29T23:16:49.095Z,24.15
2022-08-29T23:19:16.868Z,24.00
2022-08-29T23:21:44.993Z,23.96
2022-08-29T23:24:12.451Z,23.65
2022-08-29T23:26:42.894Z,23.90
2022-08-29T23:29:10.882Z,23.80
2022-08-29T23:31:38.714Z,23.84
2022-08-29T23:34:07.588Z,23.95
2022-08-29T23:36:36.001Z,23.88
2022-08-29T23:39:05.841Z,24.04
2022-08-29T23:41:34.007Z,23.90
2022-08-29T23:44:01.435Z,23.96
2022-08-29T23:46:29.971Z,23.90
2022-08-29T23:48:58.745Z,24.08
2022-08-29T23:51:28.289Z,23.87
2022-08-29T23:53:55.843Z,23.95
2022-08-29T23:56:25.358Z,24.06
2022-08-29T23:58:57.112Z,24.11
